Time;durP1;ratioP1;P1;durP2;ratioP2;P2;SDS_P1;SDS_P2;PMS_P1;PMS_P2;Temp;Humidity;BMP_temperature;BMP_pressure;BME280_temperature;BME280_humidity;BME280_pressure;Samples;Min_cycle;Max_cycle;Signal;HPM_P1;HPM_P2
2023/06/27 00:00:33;;;;;;;5.18;2.15;;;;;;;15.65;81.59;100972.81;7399051;19;20106;-67
2023/06/27 00:03:05;;;;;;;5.00;2.10;;;;;;;15.62;81.37;100978.25;7401123;19;20085;-65
2023/06/27 00:05:35;;;;;;;3.85;2.30;;;;;;;15.59;81.23;100979.19;7401492;19;20070;-66
2023/06/27 00:08:03;;;;;;;7.30;2.50;;;;;;;15.56;81.15;100975.84;7401258;19;20030;-66
2023/06/27 00:10:32;;;;;;;3.50;1.60;;;;;;;15.50;81.15;100976.94;7401143;19;20082;-72
2023/06/27 00:13:00;;;;;;;4.82;1.85;;;;;;;15.49;81.26;100975.19;7400524;19;20382;-72
2023/06/27 00:15:34;;;;;;;4.28;2.25;;;;;;;15.45;81.25;100978.88;7401389;19;20014;-73
2023/06/27 00:18:07;;;;;;;4.43;2.10;;;;;;;15.43;81.13;100983.38;7398928;19;20022;-69
2023/06/27 00:20:35;;;;;;;10.18;3.65;;;;;;;15.41;80.99;100978.13;7399154;19;20010;-68
2023/06/27 00:23:18;;;;;;;6.15;2.08;;;;;;;15.38;80.22;100978.28;7398001;19;20481;-67
2023/06/27 00:25:47;;;;;;;4.80;2.25;;;;;;;15.35;80.88;100981.00;7398670;19;20054;-67
2023/06/27 00:28:15;;;;;;;2.60;1.70;;;;;;;15.31;81.04;100982.91;7400991;19;20018;-67
2023/06/27 00:30:44;;;;;;;4.55;1.98;;;;;;;15.28;81.01;100990.97;7400750;19;20089;-67
2023/06/27 00:33:15;;;;;;;5.35;2.08;;;;;;;15.25;81.57;100991.09;7398113;19;20078;-67
2023/06/27 00:35:43;;;;;;;4.85;2.00;;;;;;;15.23;81.24;100989.44;7400410;19;20419;-67
2023/06/27 00:38:12;;;;;;;4.28;2.42;;;;;;;15.19;81.77;100991.31;7400648;19;20034;-67
2023/06/27 00:40:40;;;;;;;5.93;1.95;;;;;;;15.17;81.12;100994.94;7400118;19;20073;-67
2023/06/27 00:43:09;;;;;;;8.70;2.20;;;;;;;15.14;81.56;101004.69;7399476;19;20545;-67
2023/06/27 00:45:37;;;;;;;4.85;1.90;;;;;;;15.14;81.83;101004.69;7400305;19;20014;-67
2023/06/27 00:48:06;;;;;;;3.00;1.95;;;;;;;15.13;81.82;101004.75;7398622;19;20083;-67
2023/06/27 00:50:38;;;;;;;2.58;2.08;;;;;;;15.12;82.04;101008.31;7397379;19;20074;-67
2023/06/27 00:53:07;;;;;;;8.15;2.88;;;;;;;15.09;81.60;101004.00;7397205;19;20070;-67
2023/06/27 00:55:37;;;;;;;6.00;2.33;;;;;;;15.07;81.85;101005.81;7399707;19;20419;-67
2023/06/27 00:58:06;;;;;;;12.35;2.50;;;;;;;15.05;82.27;101001.53;7400409;19;20047;-67
2023/06/27 01:00:34;;;;;;;4.40;2.22;;;;;;;15.03;82.30;101008.66;7399927;19;20045;-67
2023/06/27 01:03:03;;;;;;;5.95;2.45;;;;;;;15.00;82.00;101004.34;7396551;19;20090;-67
2023/06/27 01:05:32;;;;;;;4.32;2.20;;;;;;;15.00;82.22;101007.00;7399752;19;20019;-67
2023/06/27 01:08:08;;;;;;;6.95;2.33;;;;;;;14.98;82.38;101011.47;7396835;19;20014;-67
2023/06/27 01:10:43;;;;;;;5.13;2.58;;;;;;;14.96;82.20;101015.91;7396905;19;20014;-67
2023/06/27 01:13:17;;;;;;;4.57;2.40;;;;;;;14.96;82.51;101021.19;7398257;19;20028;-66
2023/06/27 01:15:47;;;;;;;4.90;2.25;;;;;;;14.95;82.62;101023.00;7399473;19;20086;-67
2023/06/27 01:18:16;;;;;;;4.82;2.58;;;;;;;14.94;82.85;101020.41;7396908;19;20040;-67
2023/06/27 01:20:45;;;;;;;2.90;2.60;;;;;;;14.93;83.07;101030.09;7399383;19;20384;-67
2023/06/27 01:23:22;;;;;;;4.95;3.50;;;;;;;14.92;82.93;101035.44;7396510;19;20015;-68
2023/06/27 01:26:03;;;;;;;5.15;2.38;;;;;;;14.90;82.69;101026.69;7399479;19;20090;-67
2023/06/27 01:28:32;;;;;;;4.72;2.45;;;;;;;14.86;83.10;101028.63;7398727;19;20514;-66
2023/06/27 01:31:01;;;;;;;4.10;2.75;;;;;;;14.83;83.17;101032.19;7398773;19;20014;-67
2023/06/27 01:33:39;;;;;;;6.20;3.20;;;;;;;14.81;83.04;101031.41;7396734;19;20096;-66
2023/06/27 01:36:13;;;;;;;11.20;3.63;;;;;;;14.82;83.30;101040.19;7398468;19;20485;-67
2023/06/27 01:38:49;;;;;;;9.73;3.10;;;;;;;14.80;82.93;101028.81;7398399;19;20015;-67
2023/06/27 01:41:22;;;;;;;4.93;2.65;;;;;;;14.79;83.49;101027.94;7398900;19;20021;-67
2023/06/27 01:43:54;;;;;;;7.43;2.57;;;;;;;14.79;83.30;101032.38;7396150;19;20489;-66
2023/06/27 01:46:25;;;;;;;5.75;2.67;;;;;;;14.76;83.44;101032.47;7396833;19;20031;-67
2023/06/27 01:48:55;;;;;;;5.38;2.80;;;;;;;14.74;83.31;101035.16;7396505;19;20030;-67
2023/06/27 01:51:24;;;;;;;7.13;2.63;;;;;;;14.73;83.54;101038.72;7397840;19;20026;-67
2023/06/27 01:53:52;;;;;;;6.78;3.08;;;;;;;14.73;83.53;101041.38;7397081;19;20074;-69
2023/06/27 01:56:23;;;;;;;3.88;2.70;;;;;;;14.74;83.84;101043.09;7398838;19;20430;-68
2023/06/27 01:58:52;;;;;;;5.60;2.60;;;;;;;14.74;83.81;101042.25;7398799;19;20082;-68
2023/06/27 02:01:20;;;;;;;6.18;2.33;;;;;;;14.74;83.80;101045.72;7397929;19;20082;-67
2023/06/27 02:03:49;;;;;;;7.75;2.65;;;;;;;14.75;83.60;101042.19;7396885;19;20094;-68
2023/06/27 02:06:18;;;;;;;9.18;2.97;;;;;;;14.77;83.45;101044.75;7397806;19;20014;-68
2023/06/27 02:08:47;;;;;;;7.43;2.63;;;;;;;14.78;83.55;101039.41;7395786;19;20023;-68
2023/06/27 02:11:15;;;;;;;8.13;3.15;;;;;;;14.79;83.25;101040.31;7395165;19;20378;-68
2023/06/27 02:13:46;;;;;;;9.50;3.22;;;;;;;14.78;83.23;101049.97;7393152;19;20018;-68
2023/06/27 02:16:15;;;;;;;5.55;2.55;;;;;;;14.79;82.90;101045.59;7397735;19;20202;-67
2023/06/27 02:18:43;;;;;;;8.98;3.25;;;;;;;14.80;83.32;101042.88;7395326;19;20011;-67
2023/06/27 02:21:12;;;;;;;7.15;3.00;;;;;;;14.82;83.15;101048.09;7395362;19;20081;-67
2023/06/27 02:23:40;;;;;;;6.90;3.10;;;;;;;14.84;83.20;101051.56;7396319;19;20022;-67
2023/06/27 02:26:09;;;;;;;4.88;3.20;;;;;;;14.85;82.99;101047.13;7396976;19;20022;-67
2023/06/27 02:28:37;;;;;;;5.68;3.03;;;;;;;14.83;83.01;101048.03;7396808;19;20014;-67
2023/06/27 02:31:08;;;;;;;8.52;3.03;;;;;;;14.83;83.26;101044.56;7395249;19;20082;-67
2023/06/27 02:33:37;;;;;;;8.25;3.15;;;;;;;14.79;82.77;101043.78;7394693;19;20364;-67
2023/06/27 02:36:06;;;;;;;7.90;3.03;;;;;;;14.78;83.13;101044.69;7396537;19;20089;-67
2023/06/27 02:38:34;;;;;;;8.95;3.08;;;;;;;14.76;82.90;101049.19;7396605;19;20010;-67
2023/06/27 02:41:02;;;;;;;7.68;2.65;;;;;;;14.75;82.74;101049.25;7396109;19;20549;-66
2023/06/27 02:43:31;;;;;;;10.55;2.95;;;;;;;14.71;82.73;101050.25;7395764;19;20090;-67
2023/06/27 02:46:00;;;;;;;6.85;2.80;;;;;;;14.71;82.83;101048.50;7396417;19;20091;-68
2023/06/27 02:48:31;;;;;;;6.90;3.67;;;;;;;14.67;82.38;101057.41;7394765;19;20362;-68
2023/06/27 02:51:00;;;;;;;6.60;2.38;;;;;;;14.64;82.55;101054.84;7396763;19;20021;-67
2023/06/27 02:53:28;;;;;;;9.38;3.28;;;;;;;14.61;82.70;101049.69;7394091;19;20477;-67
2023/06/27 02:56:04;;;;;;;8.95;2.72;;;;;;;14.56;82.67;101051.59;7395818;19;20046;-66
2023/06/27 02:58:32;;;;;;;9.82;2.80;;;;;;;14.52;82.86;101055.25;7396030;19;20023;-67
2023/06/27 03:01:03;;;;;;;11.52;4.03;;;;;;;14.45;82.87;101052.81;7395423;19;20017;-68
2023/06/27 03:03:34;;;;;;;9.65;3.17;;;;;;;14.41;83.09;101056.47;7395289;19;20018;-67
2023/06/27 03:06:08;;;;;;;5.97;3.17;;;;;;;14.36;83.43;101057.56;7395394;19;20074;-68
2023/06/27 03:08:37;;;;;;;9.82;3.60;;;;;;;14.32;83.61;101064.72;7396048;19;20019;-67
2023/06/27 03:11:06;;;;;;;7.05;3.15;;;;;;;14.28;83.81;101055.16;7393872;19;20018;-67
2023/06/27 03:13:34;;;;;;;6.95;3.47;;;;;;;14.23;83.73;101068.50;7393896;19;20028;-67
2023/06/27 03:16:03;;;;;;;7.28;3.40;;;;;;;14.21;83.87;101066.84;7395182;19;20029;-67
2023/06/27 03:18:34;;;;;;;9.80;3.58;;;;;;;14.16;83.85;101067.81;7393354;19;20486;-67
2023/06/27 03:21:03;;;;;;;5.28;3.00;;;;;;;14.14;84.25;101060.88;7395227;19;20423;-67
2023/06/27 03:23:31;;;;;;;13.57;3.28;;;;;;;14.09;84.22;101061.03;7394504;19;20082;-67
2023/06/27 03:26:00;;;;;;;8.48;3.33;;;;;;;14.08;84.11;101072.50;7393006;19;20078;-67
2023/06/27 03:28:28;;;;;;;10.15;3.15;;;;;;;14.06;84.49;101063.75;7395039;19;20078;-68
2023/06/27 03:30:57;;;;;;;9.05;3.30;;;;;;;14.03;84.66;101069.13;7394992;19;20018;-67
2023/06/27 03:33:25;;;;;;;9.50;3.33;;;;;;;14.01;84.73;101073.59;7392970;19;20015;-67
2023/06/27 03:35:57;;;;;;;7.53;3.10;;;;;;;14.01;84.69;101070.94;7394969;19;20035;-68
2023/06/27 03:38:25;;;;;;;8.80;3.35;;;;;;;13.97;84.59;101072.81;7395457;19;20034;-67
2023/06/27 03:40:54;;;;;;;9.40;3.47;;;;;;;13.96;85.05;101079.03;7392963;19;20082;-68
2023/06/27 03:43:22;;;;;;;12.50;3.65;;;;;;;13.97;84.63;101071.97;7394104;19;20021;-67
2023/06/27 03:45:51;;;;;;;11.05;3.63;;;;;;;13.96;84.42;101080.78;7394108;19;20022;-67
2023/06/27 03:48:19;;;;;;;11.35;4.80;;;;;;;13.94;84.98;101074.66;7392205;19;20015;-67
2023/06/27 03:50:48;;;;;;;8.63;3.38;;;;;;;13.92;84.63;101080.00;7394731;19;20023;-68
2023/06/27 03:53:19;;;;;;;7.80;3.28;;;;;;;13.92;84.57;101092.34;7392903;19;20079;-67
2023/06/27 03:55:47;;;;;;;9.10;3.20;;;;;;;13.92;84.77;101084.41;7395007;19;20070;-67
2023/06/27 03:58:15;;;;;;;11.43;4.00;;;;;;;13.93;84.63;101080.88;7394109;19;20011;-68
2023/06/27 04:00:45;;;;;;;10.05;4.30;;;;;;;13.94;84.72;101077.31;7394260;19;20014;-67
2023/06/27 04:03:13;;;;;;;8.82;3.10;;;;;;;13.94;84.96;101079.94;7393398;19;20027;-67
2023/06/27 04:05:41;;;;;;;9.27;3.55;;;;;;;13.95;84.79;101079.03;7393637;19;20078;-68
2023/06/27 04:08:10;;;;;;;12.40;3.45;;;;;;;13.96;84.81;101088.69;7393606;19;20527;-67
2023/06/27 04:10:42;;;;;;;10.35;3.25;;;;;;;13.97;84.67;101079.88;7391806;19;20089;-66
2023/06/27 04:13:10;;;;;;;8.88;3.08;;;;;;;13.98;84.62;101081.59;7392310;19;20496;-66
2023/06/27 04:15:39;;;;;;;8.18;3.40;;;;;;;14.00;84.69;101082.41;7391770;19;20022;-66
2023/06/27 04:18:08;;;;;;;14.27;5.18;;;;;;;14.00;84.84;101082.41;7393703;19;20011;-67
2023/06/27 04:20:37;;;;;;;10.63;2.95;;;;;;;14.03;85.04;101084.97;7392834;19;20083;-67
2023/06/27 04:23:05;;;;;;;7.90;2.75;;;;;;;14.05;85.07;101079.63;7392319;19;20086;-67
2023/06/27 04:25:35;;;;;;;8.50;3.15;;;;;;;14.07;84.70;101083.09;7393254;19;20078;-66
2023/06/27 04:28:06;;;;;;;8.43;3.03;;;;;;;14.08;84.63;101077.75;7393984;19;20050;-67
2023/06/27 04:30:34;;;;;;;11.23;3.42;;;;;;;14.11;84.91;101077.66;7393766;19;20092;-66
2023/06/27 04:33:03;;;;;;;14.88;3.83;;;;;;;14.12;84.74;101087.31;7391752;19;20549;-66
2023/06/27 04:35:32;;;;;;;14.65;3.97;;;;;;;14.13;84.47;101086.41;7393075;19;20042;-66
2023/06/27 04:38:00;;;;;;;14.02;4.05;;;;;;;14.16;84.81;101081.00;7395410;19;20015;-67
2023/06/27 04:40:28;;;;;;;7.28;3.15;;;;;;;14.18;84.70;101083.63;7399952;19;20014;-67
2023/06/27 04:42:57;;;;;;;9.02;3.28;;;;;;;14.21;84.77;101083.50;7397389;19;20074;-67
2023/06/27 04:45:28;;;;;;;11.45;3.40;;;;;;;14.23;84.23;101086.09;7399771;19;20029;-67
2023/06/27 04:47:56;;;;;;;10.00;3.38;;;;;;;14.26;83.98;101086.03;7399790;19;20093;-67
2023/06/27 04:50:25;;;;;;;11.50;3.88;;;;;;;14.28;84.52;101094.72;7400442;19;20086;-67
2023/06/27 04:52:53;;;;;;;10.75;3.33;;;;;;;14.31;84.34;101084.09;7398404;19;20492;-67
2023/06/27 04:55:21;;;;;;;10.73;3.70;;;;;;;14.33;84.36;101083.13;7397153;19;20082;-67
2023/06/27 04:57:51;;;;;;;8.98;3.47;;;;;;;14.35;84.04;101080.44;7399520;19;20018;-67
2023/06/27 05:00:20;;;;;;;12.35;3.90;;;;;;;14.37;83.91;101078.63;7398801;19;20029;-69
2023/06/27 05:02:51;;;;;;;10.65;3.67;;;;;;;14.39;84.09;101097.03;7398333;19;20355;-66
2023/06/27 05:05:20;;;;;;;11.23;3.78;;;;;;;14.42;83.96;101079.34;7398342;19;20522;-67
2023/06/27 05:07:48;;;;;;;12.05;4.10;;;;;;;14.45;83.94;101089.78;7396015;19;20018;-68
2023/06/27 05:10:17;;;;;;;15.18;3.45;;;;;;;14.49;83.65;101083.50;7395918;19;20034;-67
2023/06/27 05:12:46;;;;;;;14.07;3.25;;;;;;;14.53;83.94;101083.41;7396036;19;20014;-67
2023/06/27 05:15:14;;;;;;;9.13;3.40;;;;;;;14.57;83.74;101085.00;7396796;19;20082;-68
2023/06/27 05:17:54;;;;;;;11.43;3.40;;;;;;;14.62;83.56;101083.06;7398800;19;20021;-67
2023/06/27 05:20:24;;;;;;;11.10;3.35;;;;;;;14.68;83.68;101076.78;7397447;19;20078;-68
2023/06/27 05:22:53;;;;;;;9.85;3.65;;;;;;;14.72;82.95;101079.28;7395544;19;20029;-66
2023/06/27 05:25:21;;;;;;;11.80;3.17;;;;;;;14.75;82.75;101084.44;7397188;19;20515;-67
2023/06/27 05:27:49;;;;;;;13.10;2.83;;;;;;;14.81;82.92;101089.53;7397627;19;20085;-67
2023/06/27 05:30:18;;;;;;;9.43;2.90;;;;;;;14.84;82.70;101080.63;7398007;19;20033;-67
2023/06/27 05:32:47;;;;;;;14.20;3.20;;;;;;;14.86;81.54;101093.78;7397714;19;20023;-68
2023/06/27 05:35:18;;;;;;;10.10;3.80;;;;;;;14.88;80.54;101086.66;7398078;19;20022;-67
2023/06/27 05:37:46;;;;;;;11.38;3.00;;;;;;;14.91;81.27;101078.63;7395628;19;20014;-67
2023/06/27 05:40:15;;;;;;;9.13;2.45;;;;;;;14.97;80.64;101100.44;7395599;19;20070;-67
2023/06/27 05:42:44;;;;;;;11.25;2.78;;;;;;;14.99;79.79;101088.00;7396549;19;20028;-66
2023/06/27 05:45:13;;;;;;;6.57;2.60;;;;;;;15.04;80.35;101084.34;7396949;19;20021;-66
2023/06/27 05:47:47;;;;;;;10.77;2.53;;;;;;;15.08;80.26;101092.13;7396477;19;20550;-67
2023/06/27 05:50:19;;;;;;;7.18;2.63;;;;;;;15.11;78.71;101092.03;7397098;19;20015;-67
2023/06/27 05:52:47;;;;;;;12.60;2.80;;;;;;;15.18;79.67;101090.03;7395496;19;20495;-67
2023/06/27 05:55:15;;;;;;;13.63;3.30;;;;;;;15.22;77.72;101093.41;7397784;19;20035;-67
2023/06/27 05:57:44;;;;;;;6.53;2.22;;;;;;;15.27;78.92;101092.31;7397677;19;20013;-66
2023/06/27 06:00:14;;;;;;;7.82;2.15;;;;;;;15.30;78.68;101099.28;7394907;19;20443;-65
2023/06/27 06:02:45;;;;;;;7.13;2.03;;;;;;;15.32;78.04;101090.38;7394862;19;20481;-66
2023/06/27 06:05:14;;;;;;;8.95;2.15;;;;;;;15.34;76.33;101097.41;7396707;19;20066;-66
2023/06/27 06:07:46;;;;;;;8.52;2.22;;;;;;;15.37;76.04;101089.38;7396809;19;20023;-66
2023/06/27 06:10:15;;;;;;;7.70;2.42;;;;;;;15.42;77.42;101093.56;7395185;19;20098;-67
2023/06/27 06:12:44;;;;;;;6.80;2.30;;;;;;;15.49;76.54;101102.13;7396715;19;20078;-65
2023/06/27 06:15:12;;;;;;;10.55;2.60;;;;;;;15.55;76.33;101114.25;7396919;19;20017;-67
2023/06/27 06:17:41;;;;;;;9.00;2.75;;;;;;;15.60;76.60;101117.59;7396809;19;20035;-71
2023/06/27 06:20:11;;;;;;;5.35;2.03;;;;;;;15.60;74.59;101099.09;7396557;19;20078;-67
2023/06/27 06:22:40;;;;;;;13.77;2.58;;;;;;;15.62;75.79;101106.03;7395256;19;20022;-67
2023/06/27 06:25:11;;;;;;;10.63;2.38;;;;;;;15.67;74.83;101110.28;7396523;19;20014;-67
2023/06/27 06:27:40;;;;;;;6.97;1.90;;;;;;;15.71;75.14;101109.25;7396233;19;20576;-68
2023/06/27 06:30:10;;;;;;;10.80;2.33;;;;;;;15.75;73.92;101106.44;7396032;19;20033;-70
2023/06/27 06:32:39;;;;;;;11.27;2.38;;;;;;;15.78;73.71;101109.00;7396760;19;20031;-67
2023/06/27 06:35:09;;;;;;;9.43;2.15;;;;;;;15.89;74.22;101105.09;7394575;19;20024;-67
2023/06/27 06:37:38;;;;;;;13.73;2.80;;;;;;;15.98;74.19;101104.75;7395827;19;20424;-66
2023/06/27 06:40:08;;;;;;;6.78;1.90;;;;;;;16.06;73.64;101123.84;7396379;19;20086;-67
2023/06/27 06:42:39;;;;;;;10.63;1.65;;;;;;;16.11;72.82;101113.06;7394276;19;20090;-67
2023/06/27 06:45:09;;;;;;;12.32;2.65;;;;;;;16.15;72.75;101117.34;7396465;19;20078;-67
2023/06/27 06:47:38;;;;;;;9.35;2.40;;;;;;;16.17;70.79;101109.31;7394552;19;20021;-66
2023/06/27 06:50:07;;;;;;;11.50;2.35;;;;;;;16.23;72.22;101115.22;7394650;19;20492;-67
2023/06/27 06:52:36;;;;;;;9.38;1.75;;;;;;;16.29;71.46;101111.50;7394042;19;20087;-68
2023/06/27 06:55:04;;;;;;;12.07;2.15;;;;;;;16.39;71.85;101115.50;7394019;19;20014;-67
2023/06/27 06:57:33;;;;;;;14.15;2.75;;;;;;;16.50;71.54;101114.19;7395844;19;20078;-67
2023/06/27 07:00:04;;;;;;;7.20;1.65;;;;;;;16.57;68.05;101129.75;7392907;19;20364;-67
2023/06/27 07:02:33;;;;;;;7.38;2.00;;;;;;;16.59;69.63;101119.97;7393689;19;20006;-67
2023/06/27 07:05:01;;;;;;;8.98;2.58;;;;;;;16.56;67.65;101121.88;7395368;19;20490;-67
2023/06/27 07:07:30;;;;;;;11.93;2.35;;;;;;;16.56;69.29;101114.78;7395421;19;20081;-67
2023/06/27 07:09:58;;;;;;;8.10;1.63;;;;;;;16.60;69.04;101107.59;7395361;19;20082;-69
2023/06/27 07:12:26;;;;;;;8.30;2.13;;;;;;;16.65;69.20;101108.25;7395124;19;20016;-68
2023/06/27 07:14:55;;;;;;;9.32;2.15;;;;;;;16.73;68.51;101114.09;7393009;19;20503;-66
2023/06/27 07:17:26;;;;;;;8.95;1.67;;;;;;;16.76;64.28;101105.16;7394410;19;20554;-67
2023/06/27 07:19:55;;;;;;;8.50;1.70;;;;;;;16.77;66.92;101105.09;7395165;19;20083;-66
2023/06/27 07:22:24;;;;;;;4.72;1.38;;;;;;;16.77;66.02;101105.09;7394666;19;20073;-67
2023/06/27 07:24:52;;;;;;;8.15;1.75;;;;;;;16.81;66.60;101105.84;7392721;19;20015;-67
2023/06/27 07:27:21;;;;;;;6.57;1.60;;;;;;;16.86;65.53;101109.16;7394496;19;20082;-67
2023/06/27 07:29:49;;;;;;;7.95;1.95;;;;;;;16.94;65.85;101106.19;7393003;19;20081;-66
2023/06/27 07:32:18;;;;;;;8.00;1.83;;;;;;;17.01;66.16;101098.84;7392806;19;20022;-66
2023/06/27 07:34:49;;;;;;;5.30;2.00;;;;;;;17.04;63.48;101091.63;7392571;19;20085;-66
2023/06/27 07:37:17;;;;;;;4.78;1.38;;;;;;;17.07;63.77;101080.91;7393911;19;20492;-66
2023/06/27 07:39:46;;;;;;;9.15;1.80;;;;;;;17.14;64.17;101091.25;7394325;19;20025;-65
2023/06/27 07:42:16;;;;;;;7.75;1.85;;;;;;;17.23;64.64;101093.47;7394331;19;20017;-67
2023/06/27 07:44:44;;;;;;;4.72;1.40;;;;;;;17.30;62.52;101081.69;7393350;19;20015;-67
2023/06/27 07:47:13;;;;;;;8.85;1.60;;;;;;;17.39;64.24;101077.75;7394209;19;20541;-66
2023/06/27 07:49:41;;;;;;;5.55;1.33;;;;;;;17.43;62.38;101090.78;7392925;19;20066;-67
2023/06/27 07:52:12;;;;;;;4.50;1.42;;;;;;;17.42;61.05;101097.03;7393613;19;20443;-70
2023/06/27 07:54:41;;;;;;;11.63;1.75;;;;;;;17.43;62.80;101082.84;7391951;19;20486;-68
2023/06/27 07:57:10;;;;;;;8.70;1.42;;;;;;;17.42;61.19;101070.50;7393862;19;20031;-66
2023/06/27 07:59:38;;;;;;;7.43;1.42;;;;;;;17.50;61.63;101082.56;7391743;19;20379;-67
2023/06/27 08:02:08;;;;;;;6.45;1.83;;;;;;;17.57;62.95;101068.09;7393432;19;20019;-66
2023/06/27 08:04:36;;;;;;;7.97;1.90;;;;;;;17.65;63.39;101083.66;7391585;19;20100;-68
2023/06/27 08:07:05;;;;;;;9.13;1.50;;;;;;;17.67;63.11;101085.31;7393807;19;20039;-67
2023/06/27 08:09:36;;;;;;;10.35;1.92;;;;;;;17.67;62.25;101064.06;7393545;19;20035;-67
2023/06/27 08:12:06;;;;;;;6.68;1.92;;;;;;;17.70;63.05;101065.72;7396482;19;20035;-69
2023/06/27 08:14:34;;;;;;;6.55;1.42;;;;;;;17.71;62.83;101065.66;7398501;19;20023;-67
2023/06/27 08:17:03;;;;;;;3.25;1.40;;;;;;;17.71;62.81;101057.69;7398103;19;20015;-67
2023/06/27 08:19:31;;;;;;;8.88;2.03;;;;;;;17.74;62.75;101054.91;7400467;19;20027;-67
2023/06/27 08:22:00;;;;;;;4.80;1.98;;;;;;;17.79;61.64;101061.78;7400021;19;20028;-67
2023/06/27 08:24:28;;;;;;;6.65;1.38;;;;;;;17.82;62.39;101072.25;7398214;19;20018;-67
2023/06/27 08:26:59;;;;;;;3.38;0.98;;;;;;;17.84;59.42;101059.78;7400397;19;20031;-66
2023/06/27 08:29:28;;;;;;;5.15;1.08;;;;;;;17.89;60.44;101058.63;7400179;19;20228;-68
2023/06/27 08:31:59;;;;;;;5.50;1.13;;;;;;;17.92;60.32;101041.69;7399814;19;20102;-67
2023/06/27 08:34:28;;;;;;;8.45;1.40;;;;;;;18.05;58.83;101048.16;7396765;19;20015;-68
2023/06/27 08:37:03;;;;;;;6.18;1.23;;;;;;;18.16;57.84;101044.13;7400256;19;20010;-68
2023/06/27 08:39:31;;;;;;;4.72;1.45;;;;;;;18.20;58.54;101054.53;7400147;19;20369;-67
2023/06/27 08:42:03;;;;;;;4.53;1.35;;;;;;;18.18;57.34;101052.88;7397563;19;20022;-67
2023/06/27 08:44:31;;;;;;;3.47;1.17;;;;;;;18.18;57.81;101058.19;7397357;19;20514;-66
2023/06/27 08:47:04;;;;;;;9.55;1.40;;;;;;;18.11;56.94;101064.72;7399628;19;20014;-65
2023/06/27 08:49:36;;;;;;;4.75;1.33;;;;;;;18.09;57.63;101037.41;7396498;19;20010;-67
2023/06/27 08:52:07;;;;;;;6.30;1.10;;;;;;;18.06;58.04;101038.41;7399164;19;20014;-67
2023/06/27 08:54:39;;;;;;;5.45;1.05;;;;;;;18.04;58.27;101043.78;7397515;19;20018;-66
2023/06/27 08:57:12;;;;;;;5.55;1.17;;;;;;;18.06;56.83;101039.25;7400459;19;20094;-66
2023/06/27 08:59:44;;;;;;;4.53;1.20;;;;;;;18.13;58.41;101049.59;7398975;19;20078;-65
2023/06/27 09:02:15;;;;;;;4.88;1.30;;;;;;;18.20;58.81;101035.94;7399792;19;20018;-66
2023/06/27 09:04:45;;;;;;;3.47;1.20;;;;;;;18.25;56.72;101035.72;7397339;19;20011;-67
2023/06/27 09:07:14;;;;;;;4.25;1.30;;;;;;;18.31;57.93;101034.53;7399680;19;20015;-67
2023/06/27 09:09:43;;;;;;;3.60;1.10;;;;;;;18.33;57.95;101036.19;7396611;19;20010;-66
2023/06/27 09:12:15;;;;;;;4.85;1.08;;;;;;;18.35;57.46;101030.78;7398950;19;20081;-67
2023/06/27 09:14:43;;;;;;;3.42;1.02;;;;;;;18.36;57.70;101027.19;7395593;19;20014;-67
2023/06/27 09:17:12;;;;;;;4.53;1.45;;;;;;;18.38;57.80;101018.22;7398241;19;20021;-66
2023/06/27 09:19:40;;;;;;;3.95;1.10;;;;;;;18.39;54.61;101037.69;7398622;19;20430;-66
2023/06/27 09:22:09;;;;;;;4.32;1.08;;;;;;;18.47;56.26;101016.03;7396627;19;20018;-67
2023/06/27 09:24:40;;;;;;;3.45;1.88;;;;;;;18.58;55.16;101021.69;7395087;19;20021;-66
2023/06/27 09:27:09;;;;;;;3.60;1.20;;;;;;;18.64;55.32;101012.50;7397959;19;20139;-68
2023/06/27 09:29:40;;;;;;;5.28;1.00;;;;;;;18.62;52.00;101041.00;7396040;19;20070;-68
2023/06/27 09:32:10;;;;;;;5.50;1.58;;;;;;;18.62;53.37;101014.41;7399064;19;20106;-65
2023/06/27 09:34:39;;;;;;;3.83;1.02;;;;;;;18.57;52.25;101011.97;7395398;19;20082;-67
2023/06/27 09:37:07;;;;;;;3.13;1.00;;;;;;;18.59;54.15;101001.28;7398137;19;20025;-66
2023/06/27 09:39:36;;;;;;;4.03;0.90;;;;;;;18.60;53.95;101003.00;7395911;19;20010;-66
2023/06/27 09:42:04;;;;;;;2.83;0.90;;;;;;;18.55;53.61;101008.53;7398039;19;20078;-65
2023/06/27 09:44:33;;;;;;;5.80;1.00;;;;;;;18.53;53.35;101002.47;7396156;19;20043;-65
2023/06/27 09:47:04;;;;;;;6.70;1.20;;;;;;;18.53;52.55;101002.47;7397885;19;20021;-65
2023/06/27 09:49:34;;;;;;;2.50;1.20;;;;;;;18.58;54.22;101004.84;7396538;19;20014;-66
2023/06/27 09:52:06;;;;;;;4.35;1.67;;;;;;;18.65;53.36;101003.59;7398009;19;20035;-65
2023/06/27 09:54:35;;;;;;;4.40;1.10;;;;;;;18.75;52.21;101017.28;7395285;19;20569;-65
2023/06/27 09:57:14;;;;;;;2.88;1.00;;;;;;;18.87;52.99;100998.91;7397555;19;20086;-65
2023/06/27 09:59:42;;;;;;;2.45;1.27;;;;;;;18.92;52.55;101006.69;7397783;19;20015;-64
2023/06/27 10:02:17;;;;;;;3.08;0.93;;;;;;;18.91;50.87;101025.38;7398110;19;20098;-68
2023/06/27 10:04:46;;;;;;;7.45;1.27;;;;;;;18.53;60.68;101076.84;7395799;19;20043;-65
2023/06/27 10:07:15;;;;;;;5.18;1.40;;;;;;;17.83;63.69;101031.50;7397144;19;20018;-64
2023/06/27 10:09:44;;;;;;;9.57;2.25;;;;;;;16.80;69.71;101043.16;7396633;19;20018;-65
2023/06/27 10:12:14;;;;;;;8.85;1.42;;;;;;;16.01;72.08;101038.47;7396310;19;20019;-65
2023/06/27 10:14:42;;;;;;;6.00;1.52;;;;;;;15.44;74.36;101028.28;7394665;19;20015;-70
2023/06/27 10:17:17;;;;;;;5.30;1.65;;;;;;;15.06;77.06;101025.22;7394349;19;20010;-68
2023/06/27 10:19:48;;;;;;;4.88;1.50;;;;;;;14.83;78.78;101020.78;7396350;19;20011;-66
2023/06/27 10:22:21;;;;;;;3.83;1.60;;;;;;;14.71;79.98;101019.44;7397949;19;20082;-67
2023/06/27 10:24:53;;;;;;;5.72;2.00;;;;;;;14.64;79.33;101018.78;7394038;19;20018;-67
2023/06/27 10:27:23;;;;;;;4.53;1.83;;;;;;;14.70;81.13;101019.47;7396129;19;20034;-67
2023/06/27 10:29:51;;;;;;;4.88;2.17;;;;;;;14.85;82.18;101023.38;7394019;19;20018;-68
2023/06/27 10:32:21;;;;;;;5.45;1.90;;;;;;;14.98;85.01;101006.16;7395843;19;20077;-68
2023/06/27 10:34:52;;;;;;;7.40;2.10;;;;;;;15.20;82.26;101008.03;7391913;19;20024;-68
2023/06/27 10:37:26;;;;;;;5.30;2.20;;;;;;;15.42;82.18;101010.75;7395693;19;20011;-67
2023/06/27 10:40:00;;;;;;;9.27;4.50;;;;;;;15.71;82.72;101062.53;7396457;19;20366;-67
2023/06/27 10:42:31;;;;;;;4.47;1.30;;;;;;;15.87;75.33;101083.13;7396761;19;20015;-67
2023/06/27 10:45:07;;;;;;;7.20;1.65;;;;;;;15.19;82.26;101135.81;7394533;19;20035;-68
2023/06/27 10:47:38;;;;;;;5.93;1.30;;;;;;;14.13;81.57;101090.81;7396753;19;20077;-67
2023/06/27 10:50:12;;;;;;;8.23;1.70;;;;;;;13.26;86.67;101072.22;7394832;19;20007;-67
2023/06/27 10:52:42;;;;;;;4.90;1.90;;;;;;;12.71;91.45;101074.53;7394753;19;20035;-68
2023/06/27 10:55:23;;;;;;;6.65;2.72;;;;;;;12.34;95.25;101057.88;7394984;19;20026;-67
2023/06/27 10:58:06;;;;;;;8.45;3.30;;;;;;;12.19;98.00;101045.94;7394920;19;20030;-68
2023/06/27 11:00:37;;;;;;;7.38;4.53;;;;;;;12.15;95.68;101052.19;7395804;19;20014;-68
2023/06/27 11:03:07;;;;;;;11.40;5.60;;;;;;;12.22;98.75;101043.25;7394729;19;20049;-67
2023/06/27 11:05:49;;;;;;;14.48;7.90;;;;;;;12.35;98.21;101048.22;7393673;19;20073;-67
2023/06/27 11:08:19;;;;;;;19.38;10.30;;;;;;;12.50;100.00;101044.38;7394546;19;20489;-69
2023/06/27 11:10:53;;;;;;;19.50;11.68;;;;;;;12.66;100.00;101044.81;7395150;19;20482;-68
2023/06/27 11:13:26;;;;;;;16.67;11.43;;;;;;;12.79;100.00;101037.47;7393694;19;20541;-68
2023/06/27 11:15:56;;;;;;;19.83;12.20;;;;;;;12.92;100.00;101040.66;7394675;19;20094;-68
2023/06/27 11:18:27;;;;;;;21.00;12.43;;;;;;;13.06;100.00;101032.38;7395033;19;20025;-68
2023/06/27 11:20:59;;;;;;;24.33;14.02;;;;;;;13.29;100.00;101037.84;7395154;19;20018;-70
2023/06/27 11:23:28;;;;;;;16.88;11.45;;;;;;;13.48;100.00;101025.06;7393269;19;20089;-68
2023/06/27 11:25:56;;;;;;;19.90;11.88;;;;;;;13.69;100.00;101028.81;7394705;19;20015;-66
2023/06/27 11:28:26;;;;;;;15.30;7.80;;;;;;;13.93;100.00;101041.31;7394029;19;20379;-65
2023/06/27 11:31:01;;;;;;;11.63;7.72;;;;;;;14.02;100.00;101043.66;7394415;19;20478;-64
2023/06/27 11:33:30;;;;;;;12.05;6.20;;;;;;;14.04;100.00;101043.59;7392732;19;20041;-64